Latest Weather Observations for Eucla

IDW60801

Issued at 9:05 am WST Friday 18 April 2014 (issued every 30 minutes, with the page automatically refreshed every 10 minutes)

About weather observations | Map of weather stations | Latest weather observations for WA | Other Formats
Station Details ID: 011003 Name: EUCLA Lat: -31.68 Lon: 128.90 Height: 93.1 m
Data from the previous 72 hours. | See also: Recent months at Eucla
Date/Time
WST
Temp
°C
App
Temp
°C
Dew
Point
Rel
Hum
%
Delta-T
°C
Wind Press
QNH
hPa
Press
MSL
hPa
Rain
since 9 am
mm
Dir
 
Spd
km/h
Gust
km/h
Spd
kts
Gust
kts
18/09:00am 20.7 20.5 16.7 78 2.4 SE 13 19 7 10 1024.0 1023.8 0.0
18/08:30am 20.3 19.7 16.7 80 2.2 SSE 15 20 8 11 1024.0 - 0.0
18/08:00am 19.9 19.3 16.7 82 1.9 SE 15 20 8 11 1024.0 1023.8 0.0
18/07:30am 19.6 18.9 16.4 82 1.9 SE 15 20 8 11 1023.7 - 0.0
18/07:00am 20.2 20.0 16.8 81 2.1 SE 13 22 7 12 1023.4 1023.2 0.0
18/06:30am 18.7 18.3 16.3 86 1.4 SE 13 19 7 10 1023.2 - 0.0
18/06:00am 18.4 17.7 16.4 88 1.2 SE 15 24 8 13 1022.9 1022.7 0.0
18/05:30am 18.4 17.6 16.2 87 1.3 SE 15 22 8 12 1022.6 - 0.0
18/05:00am 18.6 17.4 16.2 86 1.4 SE 17 28 9 15 1022.4 1022.2 0.0
18/04:30am 18.6 17.1 16.2 86 1.4 SSE 19 32 10 17 1022.3 - 0.0
18/04:00am 18.7 17.7 16.7 88 1.2 SSE 17 28 9 15 1022.1 1021.9 0.0
18/03:30am 18.4 16.9 16.2 87 1.3 SSE 19 26 10 14 1021.9 - 0.0
18/03:00am 18.6 17.1 16.4 87 1.3 SSE 19 30 10 16 1021.6 1021.4 0.0
18/02:30am 18.6 17.6 16.6 88 1.2 SSE 17 26 9 14 1021.4 - 0.0
18/02:00am 18.9 18.7 17.6 92 0.8 S 15 24 8 13 1021.4 1021.2 0.0
18/01:30am 18.9 18.3 17.6 92 0.8 S 17 30 9 16 1021.3 - 0.0
18/01:00am 18.5 18.1 17.2 92 0.8 S 15 22 8 12 1021.3 1021.1 0.0
18/12:30am 17.8 17.3 15.8 88 1.2 SSW 13 15 7 8 1021.3 - 0.0
18/12:00am 19.0 19.1 16.4 85 1.6 SE 11 15 6 8 1021.0 1020.8 0.0
 
Date/Time
WST
Temp
°C
App
Temp
°C
Dew
Point
Rel
Hum
%
Delta-T
°C
Wind Press
QNH
hPa
Press
MSL
hPa
Rain
since 9 am
mm
Dir
 
Spd
km/h
Gust
km/h
Spd
kts
Gust
kts
17/11:30pm 18.3 17.1 14.0 76 2.5 SW 13 17 7 9 1021.0 - 0.0
17/11:00pm 18.3 16.3 11.4 64 3.8 SW 13 17 7 9 1020.7 1020.4 0.0
17/10:30pm 17.9 17.1 11.0 64 3.7 NE 6 9 3 5 1020.2 - 0.0
17/10:00pm 18.0 15.5 11.1 64 3.7 N 15 20 8 11 1020.2 1019.9 0.0
17/09:30pm 18.6 15.8 11.2 62 4.0 N 17 20 9 11 1019.7 - 0.0
17/09:00pm 18.8 16.3 10.9 60 4.3 N 15 19 8 10 1019.8 1019.5 0.0
17/08:30pm 19.5 17.0 11.0 58 4.7 N 15 17 8 9 1019.8 - 0.0
17/08:00pm 20.1 17.9 10.8 55 5.1 NNE 13 19 7 10 1019.6 1019.3 0.0
17/07:30pm 20.6 18.4 10.7 53 5.4 NNE 13 19 7 10 1019.5 - 0.0
17/07:00pm 21.3 19.1 10.8 51 5.8 NNE 13 17 7 9 1019.5 1019.2 0.0
17/06:30pm 21.8 19.6 10.9 50 6.0 NE 13 17 7 9 1019.2 - 0.0
17/06:00pm 22.2 20.1 11.3 50 6.1 NE 13 19 7 10 1018.9 1018.7 0.0
17/05:30pm 22.3 20.4 11.7 51 6.0 NE 13 17 7 9 1018.7 - 0.0
17/05:00pm 22.9 21.5 12.2 51 6.1 ENE 11 13 6 7 1018.6 1018.4 0.0
17/04:30pm 24.2 23.3 12.5 48 6.7 E 9 13 5 7 1018.5 - 0.0
17/04:00pm 25.0 23.9 13.2 48 6.9 E 11 15 6 8 1018.4 1018.2 0.0
17/03:30pm 25.0 24.3 14.2 51 6.4 SE 11 15 6 8 1018.4 - 0.0
17/03:00pm 24.8 23.3 13.0 47 6.9 ESE 13 15 7 8 1018.2 1018.0 0.0
17/02:30pm 24.9 23.4 14.1 51 6.4 SE 15 19 8 10 1018.4 - 0.0
17/02:00pm 25.2 24.2 14.6 51 6.3 SE 13 17 7 9 1018.5 1018.3 0.0
17/01:30pm 25.4 24.5 14.8 52 6.4 SE 13 19 7 10 1018.5 - 0.0
17/01:00pm 25.8 25.0 15.2 52 6.4 SE 13 17 7 9 1018.8 1018.6 0.0
17/12:30pm 29.2 28.2 15.7 44 8.3 NW 15 24 8 13 1018.9 - 0.0
17/12:00pm 29.6 26.6 9.2 28 11.4 NNW 15 20 8 11 1019.5 1019.2 0.0
17/11:30am 28.3 24.9 10.5 33 10.1 NW 19 30 10 16 1020.0 - 0.0
17/11:00am 28.2 25.1 10.4 33 10.1 NNW 17 26 9 14 1020.5 1020.2 0.0
17/10:30am 27.1 23.7 10.7 35 9.3 NNW 19 28 10 15 1021.0 - 0.0
17/10:00am 26.4 23.3 11.7 40 8.4 NNW 19 26 10 14 1021.1 1020.9 0.0
17/09:30am 24.9 21.9 12.5 46 7.2 N 20 32 11 17 1021.0 - 0.0
17/09:00am 23.3 21.0 12.9 52 6.0 N 17 28 9 15 1021.2 1021.0 0.0
17/08:30am 21.9 19.2 13.0 57 5.1 N 19 28 10 15 1021.2 - 0.0
17/08:00am 20.5 18.9 13.9 66 3.8 NNE 15 20 8 11 1021.1 1020.9 0.0
17/07:30am 18.7 17.7 15.6 82 1.8 NNE 15 19 8 10 1021.2 - 0.0
17/07:00am 16.9 16.3 15.6 92 0.8 NNE 13 17 7 9 1021.0 1020.8 0.0
17/06:30am 15.4 15.3 14.9 97 0.3 N 9 13 5 7 1020.9 - 0.0
17/06:00am 14.8 14.5 14.3 97 0.3 N 9 11 5 6 1020.8 1020.6 0.0
17/05:30am 14.8 14.1 14.3 97 0.3 N 11 13 6 7 1020.5 - 0.0
17/05:00am 15.2 14.6 14.7 97 0.3 NNE 11 13 6 7 1020.5 1020.2 0.0
17/04:30am 15.8 15.4 15.3 97 0.3 NNE 11 13 6 7 1020.5 - 0.0
17/04:00am 15.7 15.7 15.2 97 0.3 N 9 11 5 6 1020.5 1020.2 0.0
17/03:30am 15.9 15.5 15.3 96 0.3 NNE 11 13 6 7 1020.4 - 0.0
17/03:00am 16.3 16.0 15.5 95 0.5 NNE 11 15 6 8 1020.2 1019.9 0.0
17/02:30am 17.1 18.0 16.0 93 0.7 E 6 7 3 4 1020.4 - 0.0
17/02:00am 17.4 17.7 16.1 92 0.8 E 9 11 5 6 1020.4 1020.1 0.0
17/01:30am 17.3 18.1 16.3 94 0.6 E 7 9 4 5 1020.5 - 0.0
17/01:00am 17.0 17.3 15.9 93 0.6 E 9 11 5 6 1020.7 1020.4 0.0
17/12:30am 17.1 17.2 15.6 91 0.9 ESE 9 11 5 6 1020.7 - 0.0
17/12:00am 17.5 17.8 16.0 91 0.9 ESE 9 15 5 8 1020.8 1020.6 0.0
 
Date/Time
WST
Temp
°C
App
Temp
°C
Dew
Point
Rel
Hum
%
Delta-T
°C
Wind Press
QNH
hPa
Press
MSL
hPa
Rain
since 9 am
mm
Dir
 
Spd
km/h
Gust
km/h
Spd
kts
Gust
kts
16/11:30pm 17.3 17.6 16.0 92 0.8 SE 9 13 5 7 1020.8 - 0.0
16/11:00pm 17.4 17.7 15.9 91 0.9 SE 9 11 5 6 1020.9 1020.7 0.0
16/10:30pm 17.8 17.7 16.1 90 1.0 SSE 11 17 6 9 1021.1 - 0.0
16/10:00pm 18.1 18.2 16.4 90 1.0 SSE 11 17 6 9 1021.4 1021.2 0.0
16/09:30pm 18.3 18.0 16.5 89 1.1 SSE 13 19 7 10 1021.4 - 0.0
16/09:00pm 18.4 18.2 16.7 90 1.0 SSE 13 19 7 10 1021.5 1021.3 0.0
16/08:30pm 18.3 18.0 16.5 89 1.1 S 13 19 7 10 1021.4 - 0.0
16/08:00pm 18.3 18.0 16.5 89 1.1 S 13 17 7 9 1021.3 1021.1 0.0
16/07:30pm 18.5 18.3 16.7 89 1.1 S 13 19 7 10 1021.1 - 0.0
16/07:00pm 18.7 18.2 16.8 89 1.1 S 15 20 8 11 1021.0 1020.8 0.0
16/06:30pm 18.9 18.4 17.0 89 1.2 S 15 20 8 11 1020.9 - 0.0
16/06:00pm 19.1 19.1 17.2 89 1.2 S 13 19 7 10 1020.7 1020.4 0.0
16/05:30pm 19.2 18.5 17.3 89 1.2 S 17 24 9 13 1020.4 - 0.0
16/05:00pm 19.3 19.0 17.4 89 1.2 SSW 15 20 8 11 1020.1 1019.8 0.0
16/04:30pm 19.8 19.1 17.4 86 1.5 SSW 17 26 9 14 1020.0 - 0.0
16/04:00pm 20.7 19.6 17.3 81 2.1 SSW 19 28 10 15 1019.8 1019.5 0.0
16/03:30pm 21.3 20.2 17.3 78 2.5 SSW 19 30 10 16 1019.7 - 0.0
16/03:00pm 22.2 21.3 16.9 72 3.2 SSW 17 26 9 14 1019.6 1019.3 0.0
16/02:30pm 22.5 21.0 16.8 70 3.5 SSW 20 28 11 15 1019.7 - 0.0
16/02:00pm 22.9 21.5 16.9 69 3.7 SSW 20 28 11 15 1019.7 1019.4 0.0
16/01:30pm 23.0 21.8 17.0 69 3.7 SSW 19 26 10 14 1019.7 - 0.0
16/01:00pm 23.5 22.4 17.3 68 3.8 S 19 28 10 15 1019.8 1019.5 0.0
16/12:30pm 24.2 22.0 13.4 51 6.3 S 17 26 9 14 1019.8 - 0.0
16/12:00pm 27.6 25.4 10.8 35 9.5 W 13 19 7 10 1019.9 1019.6 0.0
16/11:30am 26.8 24.4 10.1 35 9.3 WNW 13 20 7 11 1020.4 - 0.0
16/11:00am 26.5 23.3 9.8 35 9.3 WNW 17 30 9 16 1020.8 1020.6 0.0
16/10:30am 25.4 22.2 10.1 38 8.5 NW 17 28 9 15 1020.9 - 0.0
16/10:00am 24.3 20.8 10.2 41 7.8 NW 19 30 10 16 1021.1 1020.9 0.0
16/09:30am 23.4 20.0 10.5 44 7.1 NNW 19 28 10 15 1021.3 - 0.0
16/09:00am 21.9 18.6 11.6 52 5.8 NNW 20 26 11 14 1021.5 1021.3 0.0
16/08:30am 20.4 17.6 11.3 56 5.0 N 17 22 9 12 1021.5 - 0.0
16/08:00am 18.4 15.7 11.7 65 3.7 N 17 26 9 14 1021.5 1021.3 0.0
16/07:30am 16.3 13.9 11.5 73 2.6 N 15 20 8 11 1021.4 - 0.0
16/07:00am 14.0 11.0 10.8 81 1.7 N 17 22 9 12 1021.3 1021.1 0.0
16/06:30am 12.3 9.5 10.0 86 1.2 N 15 22 8 12 1021.1 - 0.0
16/06:00am 11.1 8.2 9.7 91 0.7 N 15 19 8 10 1020.8 1020.6 0.0
16/05:30am 11.2 8.3 9.8 91 0.7 N 15 19 8 10 1020.4 - 0.0
16/05:00am 11.4 8.2 9.8 90 0.8 N 17 20 9 11 1020.3 1020.0 0.0
16/04:30am 12.0 9.2 10.1 88 1.0 N 15 20 8 11 1020.2 - 0.0
16/04:00am 12.7 9.2 10.2 85 1.3 N 19 26 10 14 1019.8 1019.5 0.0
16/03:30am 12.6 9.5 10.3 86 1.2 N 17 24 9 13 1019.6 - 0.0
16/03:00am 12.8 9.7 10.3 85 1.3 N 17 24 9 13 1019.7 1019.4 0.0
16/02:30am 12.5 9.5 10.6 88 1.0 N 17 22 9 12 1019.6 - 0.0
16/02:00am 12.6 10.1 11.2 91 0.7 N 15 20 8 11 1019.9 1019.6 0.0
16/01:30am 13.0 10.3 11.7 92 0.7 N 17 24 9 13 1020.2 - 0.0
16/01:00am 13.1 10.5 12.0 93 0.6 N 17 26 9 14 1020.5 1020.2 0.0
16/12:30am 13.1 10.6 12.2 94 0.5 N 17 22 9 12 1020.7 - 0.0
16/12:00am 13.2 11.1 12.3 94 0.5 N 15 20 8 11 1020.7 1020.4 0.0
 
Date/Time
WST
Temp
°C
App
Temp
°C
Dew
Point
Rel
Hum
%
Delta-T
°C
Wind Press
QNH
hPa
Press
MSL
hPa
Rain
since 9 am
mm
Dir
 
Spd
km/h
Gust
km/h
Spd
kts
Gust
kts
15/11:30pm 13.1 10.9 12.2 94 0.5 NNE 15 19 8 10 1020.8 - 0.0
15/11:00pm 13.4 11.3 12.3 93 0.6 NNE 15 19 8 10 1020.9 1020.7 0.0
15/10:30pm 13.5 11.8 12.4 93 0.6 NNE 13 19 7 10 1021.2 - 0.0
15/10:00pm 13.5 11.7 12.2 92 0.7 NNE 13 17 7 9 1021.5 1021.3 0.0
15/09:30pm 13.8 12.1 12.4 91 0.8 NNE 13 15 7 8 1021.7 - 0.0
15/09:00pm 14.3 12.7 12.7 90 0.9 NE 13 17 7 9 1021.9 1021.7 0.0
15/08:30pm 14.5 12.9 12.7 89 1.0 NE 13 17 7 9 1021.9 - 0.0
15/08:00pm 14.9 13.3 12.9 88 1.1 NE 13 19 7 10 1021.7 1021.5 0.0
15/07:30pm 15.2 13.7 13.1 87 1.2 ENE 13 17 7 9 1021.6 - 0.0
15/07:00pm 15.5 14.1 13.3 87 1.2 ENE 13 15 7 8 1021.4 1021.2 0.0
15/06:30pm 15.8 14.8 13.3 85 1.4 ENE 11 13 6 7 1021.4 - 0.0
15/06:00pm 16.4 15.1 13.7 84 1.5 E 13 17 7 9 1021.2 1021.0 0.0
15/05:30pm 17.0 16.7 14.5 85 1.4 E 9 13 5 7 1021.3 - 0.0
15/05:00pm 17.7 16.7 14.6 82 1.8 E 13 20 7 11 1021.0 1020.8 0.0
15/04:30pm 18.3 16.2 14.6 79 2.1 E 19 26 10 14 1020.7 - 0.0
15/04:00pm 19.1 17.4 14.6 75 2.6 ESE 17 26 9 14 1020.9 1020.7 0.0
15/03:30pm 19.4 17.4 14.0 71 3.1 ESE 17 24 9 13 1021.2 - 0.0
15/03:00pm 19.7 17.6 13.6 68 3.5 ESE 17 24 9 13 1021.3 1021.1 0.0
15/02:30pm 20.4 18.1 14.1 67 3.7 ESE 19 24 10 13 1021.4 - 0.0
15/02:00pm 20.8 18.9 14.2 66 3.8 ESE 17 26 9 14 1021.4 1021.2 0.0
15/01:30pm 20.8 18.6 13.3 62 4.3 SE 17 26 9 14 1021.4 - 0.0
15/01:00pm 21.4 19.4 13.8 62 4.4 SE 17 26 9 14 1021.4 1021.2 0.0
15/12:30pm 21.2 19.4 14.4 65 4.0 SSE 17 22 9 12 1021.7 - 0.0
15/12:00pm 20.8 19.1 13.5 63 4.2 SE 15 22 8 12 1022.2 1022.0 0.0
15/11:30am 20.3 18.3 14.0 67 3.7 SE 17 24 9 13 1022.6 - 0.0
15/11:00am 20.7 20.0 13.2 62 4.3 NE 9 13 5 7 1023.1 1022.9 0.0
15/10:30am 21.0 20.0 12.4 58 4.9 N 9 15 5 8 1023.5 - 0.0
15/10:00am 21.1 19.5 12.8 59 4.7 NNE 13 19 7 10 1024.0 1023.8 0.0
15/09:30am 20.0 18.9 13.0 64 4.0 NNE 11 20 6 11 1024.1 - 0.0

Other Formats:

Comma delimited format used in spreadsheet applications
http://www.bom.gov.au/fwo/IDW60801/IDW60801.94647.axf

JavaScript Object Notation format (JSON) in row-major order
http://www.bom.gov.au/fwo/IDW60801/IDW60801.94647.json